Terminal Aerodrome Forecast
Issued by NWS Cleveland, OH

Home | Current Version | Previous Version | Text Only | Print | Product List | Glossary Off
Versions: 1 2 3 4 5 6 7 8 9 10 11 12 13 14 15 16 17

000
FTUS41 KCLE 231510 AAA
TAFYNG
TAF AMD
KYNG 231510Z 2315/2412 22010G15KT P6SM OVC012
     FM240000 VRB04KT 5SM BR VCSH OVC022
     FM240300 12005KT 3SM -RA BR OVC010=

USA.gov is the U.S. government's official web portal to all federal, state and local government web resources and services.